Salem, SD

5:18 PM CDT on June 03, 2015 (GMT -0500)
Rural Canova, SD | | Change Station
CLOSE
Current Station
Personal Weather Station
Location: Canova, SD
Elevation: 1542 ft
Nearby Weather Stations

Elev 1542 ft 43.81 °N, 97.48 °W | Updated 3 seconds ago

Partly Cloudy
Partly Cloudy
77.8 °F
Feels Like 80 °F
N
4.2
Wind Variable Wind from WNW
Gusts 7.0 mph

Today
High -- | Low -- °F
--% Chance of Precip.
Yesterday
High -- | Low -- °F
Precip. -- in
5:49 AM 9:05 PM
Full, 98% visible
Pressure 29.90 in
Visibility 10.0 miles
Clouds Few 3800 ft
Heat Index 80 °F
Dew Point 65 °F
Humidity 65%
Rainfall 0.15 in
Snow Depth Not available.
UV 5 out of 12
Pollen 4.20 out of 12
Air Quality Not available.
Flu Activity Sporadic
METAR KMDS 032210Z AUTO 32008KT 10SM FEW038 24/17 A2990 RMK AO2

More Conditions Fewer Conditions

Pressure 29.90 in
Visibility 10.0 miles
Clouds Few 3800 ft
Heat Index 80 °F
Dew Point 65 °F
Humidity 65%
Rainfall 0.15 in
Snow Depth Not available.
UV 5 out of 12
Pollen 4.20 out of 12
Air Quality Not available.
Flu Activity Sporadic
METAR KMDS 032210Z AUTO 32008KT 10SM FEW038 24/17 A2990 RMK AO2

More Conditions Fewer Conditions

10-Day Weather Forecast

Almanac

Astronomy

Jun. 03, 2015 Rise Set
Actual Time
Civil Twilight
Nautical Twilight
Astronomical Twilight
Moon
Length of Visible Light
Length of Day
Tomorrow will be .
, % of the Moon is Illuminated

Today's Extremes

State Highs State Lows

Community

WunderPhotos

Upload Photos

1,826,291 photos uploaded!

WunderBlogs® & News

Nearby

Air Quality

  Air Quality AQ Index Pollutant
Not available.

Snow Depth

Station Depth Elevation

Earthquake Activity

City Distance Mag. Time & Date
Minimum magnitude displayed is 2.5.

Coastal Water Temperatures

Place Temperature

Stations

Nearby Weather Stations

Station Location Temp. Windchill Dew Point Humidity Wind Precip. Elev Updated Type